sensor_id;sensor_type;location;lat;lon;timestamp;temperature;humidity
9371;DHT22;4725;48.384;8.984;2024-01-06T00:00:54;4.10;99.90
9371;DHT22;4725;48.384;8.984;2024-01-06T00:03:21;4.10;99.90
9371;DHT22;4725;48.384;8.984;2024-01-06T00:05:48;4.00;99.90
9371;DHT22;4725;48.384;8.984;2024-01-06T00:08:14;4.00;99.90
9371;DHT22;4725;48.384;8.984;2024-01-06T00:10:41;4.00;99.90
9371;DHT22;4725;48.384;8.984;2024-01-06T00:13:09;4.00;99.90
9371;DHT22;4725;48.384;8.984;2024-01-06T00:15:37;4.00;99.90
9371;DHT22;4725;48.384;8.984;2024-01-06T00:18:04;4.00;99.90
9371;DHT22;4725;48.384;8.984;2024-01-06T00:20:31;4.00;99.90
9371;DHT22;4725;48.384;8.984;2024-01-06T00:22:58;4.00;99.90
9371;DHT22;4725;48.384;8.984;2024-01-06T00:25:25;4.10;99.90
9371;DHT22;4725;48.384;8.984;2024-01-06T00:27:52;4.00;99.90
9371;DHT22;4725;48.384;8.984;2024-01-06T00:30:19;4.00;99.90
9371;DHT22;4725;48.384;8.984;2024-01-06T00:32:47;4.00;99.90
9371;DHT22;4725;48.384;8.984;2024-01-06T00:35:14;3.90;99.90
9371;DHT22;4725;48.384;8.984;2024-01-06T00:37:40;3.80;99.90
9371;DHT22;4725;48.384;8.984;2024-01-06T00:40:08;3.80;99.90
9371;DHT22;4725;48.384;8.984;2024-01-06T00:42:35;3.80;99.90
9371;DHT22;4725;48.384;8.984;2024-01-06T00:45:03;3.80;99.90
9371;DHT22;4725;48.384;8.984;2024-01-06T00:47:31;3.80;99.90
9371;DHT22;4725;48.384;8.984;2024-01-06T00:49:59;3.80;99.90
9371;DHT22;4725;48.384;8.984;2024-01-06T00:52:26;3.80;99.90
9371;DHT22;4725;48.384;8.984;2024-01-06T00:54:52;3.80;99.90
9371;DHT22;4725;48.384;8.984;2024-01-06T00:57:19;3.80;99.90
9371;DHT22;4725;48.384;8.984;2024-01-06T00:59:49;3.80;99.90
9371;DHT22;4725;48.384;8.984;2024-01-06T01:02:16;3.80;99.90
9371;DHT22;4725;48.384;8.984;2024-01-06T01:04:43;3.80;99.90
9371;DHT22;4725;48.384;8.984;2024-01-06T01:07:12;3.70;99.90
9371;DHT22;4725;48.384;8.984;2024-01-06T01:09:39;3.70;99.90
9371;DHT22;4725;48.384;8.984;2024-01-06T01:12:06;3.60;99.90
9371;DHT22;4725;48.384;8.984;2024-01-06T01:14:33;3.70;99.90
9371;DHT22;4725;48.384;8.984;2024-01-06T01:16:59;3.60;99.90
9371;DHT22;4725;48.384;8.984;2024-01-06T01:19:26;3.60;99.90
9371;DHT22;4725;48.384;8.984;2024-01-06T01:21:53;3.60;99.90
9371;DHT22;4725;48.384;8.984;2024-01-06T01:24:22;3.70;99.90
9371;DHT22;4725;48.384;8.984;2024-01-06T01:26:49;3.50;99.90
9371;DHT22;4725;48.384;8.984;2024-01-06T01:29:16;3.50;99.90
9371;DHT22;4725;48.384;8.984;2024-01-06T01:31:45;3.50;99.90
9371;DHT22;4725;48.384;8.984;2024-01-06T01:34:12;3.60;99.90
9371;DHT22;4725;48.384;8.984;2024-01-06T01:36:39;3.50;99.90
9371;DHT22;4725;48.384;8.984;2024-01-06T01:39:06;3.50;99.90
9371;DHT22;4725;48.384;8.984;2024-01-06T01:41:34;3.50;99.90
9371;DHT22;4725;48.384;8.984;2024-01-06T01:44:01;3.50;99.90
9371;DHT22;4725;48.384;8.984;2024-01-06T01:46:29;3.50;99.90
9371;DHT22;4725;48.384;8.984;2024-01-06T01:48:58;3.50;99.90
9371;DHT22;4725;48.384;8.984;2024-01-06T01:51:28;4.60;99.90
9371;DHT22;4725;48.384;8.984;2024-01-06T01:53:56;3.50;99.90
9371;DHT22;4725;48.384;8.984;2024-01-06T01:56:24;3.40;99.90
9371;DHT22;4725;48.384;8.984;2024-01-06T01:58:53;3.40;99.90
9371;DHT22;4725;48.384;8.984;2024-01-06T02:01:20;3.40;99.90
9371;DHT22;4725;48.384;8.984;2024-01-06T02:03:47;3.40;99.90
9371;DHT22;4725;48.384;8.984;2024-01-06T02:06:14;3.30;99.90
9371;DHT22;4725;48.384;8.984;2024-01-06T02:08:40;3.30;99.90
9371;DHT22;4725;48.384;8.984;2024-01-06T02:11:07;3.40;99.90
9371;DHT22;4725;48.384;8.984;2024-01-06T02:13:34;3.40;99.90
9371;DHT22;4725;48.384;8.984;2024-01-06T02:16:04;3.40;99.90
9371;DHT22;4725;48.384;8.984;2024-01-06T02:18:32;3.40;99.90
9371;DHT22;4725;48.384;8.984;2024-01-06T02:21:00;3.40;99.90
9371;DHT22;4725;48.384;8.984;2024-01-06T02:23:29;3.40;99.90
9371;DHT22;4725;48.384;8.984;2024-01-06T02:25:56;3.40;99.90
9371;DHT22;4725;48.384;8.984;2024-01-06T02:28:23;3.40;99.90
9371;DHT22;4725;48.384;8.984;2024-01-06T02:30:50;3.50;99.90
9371;DHT22;4725;48.384;8.984;2024-01-06T02:33:17;3.50;99.90
9371;DHT22;4725;48.384;8.984;2024-01-06T02:35:44;3.50;99.90
9371;DHT22;4725;48.384;8.984;2024-01-06T02:38:11;3.50;99.90
9371;DHT22;4725;48.384;8.984;2024-01-06T02:40:40;3.50;99.90
9371;DHT22;4725;48.384;8.984;2024-01-06T02:43:08;3.60;99.90
9371;DHT22;4725;48.384;8.984;2024-01-06T02:45:35;3.50;99.90
9371;DHT22;4725;48.384;8.984;2024-01-06T02:48:02;3.60;99.90
9371;DHT22;4725;48.384;8.984;2024-01-06T02:50:29;3.60;99.90
9371;DHT22;4725;48.384;8.984;2024-01-06T02:52:55;3.50;99.90
9371;DHT22;4725;48.384;8.984;2024-01-06T02:55:22;3.60;99.90
9371;DHT22;4725;48.384;8.984;2024-01-06T02:57:50;3.60;99.90
9371;DHT22;4725;48.384;8.984;2024-01-06T03:00:18;3.50;99.90
9371;DHT22;4725;48.384;8.984;2024-01-06T03:02:44;3.50;99.90
9371;DHT22;4725;48.384;8.984;2024-01-06T03:05:11;3.40;99.90
9371;DHT22;4725;48.384;8.984;2024-01-06T03:07:38;3.50;99.90
9371;DHT22;4725;48.384;8.984;2024-01-06T03:10:05;3.50;99.90
9371;DHT22;4725;48.384;8.984;2024-01-06T03:12:32;3.50;99.90
9371;DHT22;4725;48.384;8.984;2024-01-06T03:15:01;3.50;99.90
9371;DHT22;4725;48.384;8.984;2024-01-06T03:17:27;3.50;99.90
9371;DHT22;4725;48.384;8.984;2024-01-06T03:19:54;3.40;99.90
9371;DHT22;4725;48.384;8.984;2024-01-06T03:22:22;3.50;99.90
9371;DHT22;4725;48.384;8.984;2024-01-06T03:24:48;3.50;99.90
9371;DHT22;4725;48.384;8.984;2024-01-06T03:27:15;3.40;99.90
9371;DHT22;4725;48.384;8.984;2024-01-06T03:29:42;3.40;99.90
9371;DHT22;4725;48.384;8.984;2024-01-06T03:32:10;3.40;99.90
9371;DHT22;4725;48.384;8.984;2024-01-06T03:34:37;3.50;99.90
9371;DHT22;4725;48.384;8.984;2024-01-06T03:37:04;3.40;99.90
9371;DHT22;4725;48.384;8.984;2024-01-06T03:39:31;3.40;99.90
9371;DHT22;4725;48.384;8.984;2024-01-06T03:41:59;3.40;99.90
9371;DHT22;4725;48.384;8.984;2024-01-06T03:44:26;3.40;99.90
9371;DHT22;4725;48.384;8.984;2024-01-06T03:46:56;3.30;99.90
9371;DHT22;4725;48.384;8.984;2024-01-06T03:49:24;3.40;99.90
9371;DHT22;4725;48.384;8.984;2024-01-06T03:51:51;3.30;99.90
9371;DHT22;4725;48.384;8.984;2024-01-06T03:54:17;3.30;99.90
9371;DHT22;4725;48.384;8.984;2024-01-06T03:56:44;3.30;99.90
9371;DHT22;4725;48.384;8.984;2024-01-06T03:59:11;3.30;99.90
9371;DHT22;4725;48.384;8.984;2024-01-06T04:01:38;3.30;99.90
9371;DHT22;4725;48.384;8.984;2024-01-06T04:04:05;3.30;99.90
9371;DHT22;4725;48.384;8.984;2024-01-06T04:06:33;3.30;99.90
9371;DHT22;4725;48.384;8.984;2024-01-06T04:09:00;3.30;99.90
9371;DHT22;4725;48.384;8.984;2024-01-06T04:11:28;3.20;99.90
9371;DHT22;4725;48.384;8.984;2024-01-06T04:13:54;3.30;99.90
9371;DHT22;4725;48.384;8.984;2024-01-06T04:16:21;3.30;99.90
9371;DHT22;4725;48.384;8.984;2024-01-06T04:18:48;3.30;99.90
9371;DHT22;4725;48.384;8.984;2024-01-06T04:21:15;3.20;99.90
9371;DHT22;4725;48.384;8.984;2024-01-06T04:23:42;3.20;99.90
9371;DHT22;4725;48.384;8.984;2024-01-06T04:26:09;3.10;99.90
9371;DHT22;4725;48.384;8.984;2024-01-06T04:28:36;3.10;99.90
9371;DHT22;4725;48.384;8.984;2024-01-06T04:31:03;3.00;99.90
9371;DHT22;4725;48.384;8.984;2024-01-06T04:33:30;3.00;99.90
9371;DHT22;4725;48.384;8.984;2024-01-06T04:35:58;3.10;99.90
9371;DHT22;4725;48.384;8.984;2024-01-06T04:38:27;3.00;99.90
9371;DHT22;4725;48.384;8.984;2024-01-06T04:40:55;3.00;99.90
9371;DHT22;4725;48.384;8.984;2024-01-06T04:43:22;3.00;99.90
9371;DHT22;4725;48.384;8.984;2024-01-06T04:45:49;3.10;99.90
9371;DHT22;4725;48.384;8.984;2024-01-06T04:48:16;3.00;99.90
9371;DHT22;4725;48.384;8.984;2024-01-06T04:50:43;3.10;99.90
9371;DHT22;4725;48.384;8.984;2024-01-06T04:53:10;3.00;99.90
9371;DHT22;4725;48.384;8.984;2024-01-06T04:55:37;3.00;99.90
9371;DHT22;4725;48.384;8.984;2024-01-06T04:58:05;3.00;99.90
9371;DHT22;4725;48.384;8.984;2024-01-06T05:00:32;3.10;99.90
9371;DHT22;4725;48.384;8.984;2024-01-06T05:03:01;3.10;99.90
9371;DHT22;4725;48.384;8.984;2024-01-06T05:05:28;3.00;99.90
9371;DHT22;4725;48.384;8.984;2024-01-06T05:07:55;3.00;99.90
9371;DHT22;4725;48.384;8.984;2024-01-06T05:10:23;3.00;99.90
9371;DHT22;4725;48.384;8.984;2024-01-06T05:12:50;3.10;99.90
9371;DHT22;4725;48.384;8.984;2024-01-06T05:15:18;3.10;99.90
9371;DHT22;4725;48.384;8.984;2024-01-06T05:17:45;3.00;99.90
9371;DHT22;4725;48.384;8.984;2024-01-06T05:20:12;3.10;99.90
9371;DHT22;4725;48.384;8.984;2024-01-06T05:22:39;3.00;99.90
9371;DHT22;4725;48.384;8.984;2024-01-06T05:25:06;3.00;99.90
9371;DHT22;4725;48.384;8.984;2024-01-06T05:27:34;3.00;99.90
9371;DHT22;4725;48.384;8.984;2024-01-06T05:30:01;2.90;99.90
9371;DHT22;4725;48.384;8.984;2024-01-06T05:32:29;3.00;99.90
9371;DHT22;4725;48.384;8.984;2024-01-06T05:34:56;2.90;99.90
9371;DHT22;4725;48.384;8.984;2024-01-06T05:37:23;2.90;99.90
9371;DHT22;4725;48.384;8.984;2024-01-06T05:39:50;3.00;99.90
9371;DHT22;4725;48.384;8.984;2024-01-06T05:42:17;2.90;99.90
9371;DHT22;4725;48.384;8.984;2024-01-06T05:44:44;2.90;99.90
9371;DHT22;4725;48.384;8.984;2024-01-06T05:47:11;2.80;99.90
9371;DHT22;4725;48.384;8.984;2024-01-06T05:49:42;2.80;99.90
9371;DHT22;4725;48.384;8.984;2024-01-06T05:52:09;2.90;99.90
9371;DHT22;4725;48.384;8.984;2024-01-06T05:54:39;2.80;99.90
9371;DHT22;4725;48.384;8.984;2024-01-06T05:57:06;2.80;99.90
9371;DHT22;4725;48.384;8.984;2024-01-06T05:59:33;2.90;99.90
9371;DHT22;4725;48.384;8.984;2024-01-06T06:02:00;2.90;99.90
9371;DHT22;4725;48.384;8.984;2024-01-06T06:04:27;2.90;99.90
9371;DHT22;4725;48.384;8.984;2024-01-06T06:06:55;2.80;99.90
9371;DHT22;4725;48.384;8.984;2024-01-06T06:09:22;2.90;99.90
9371;DHT22;4725;48.384;8.984;2024-01-06T06:11:49;2.80;99.90
9371;DHT22;4725;48.384;8.984;2024-01-06T06:14:15;2.90;99.90
9371;DHT22;4725;48.384;8.984;2024-01-06T06:16:42;2.90;99.90
9371;DHT22;4725;48.384;8.984;2024-01-06T06:19:09;2.90;99.90
9371;DHT22;4725;48.384;8.984;2024-01-06T06:21:36;2.90;99.90
9371;DHT22;4725;48.384;8.984;2024-01-06T06:24:05;2.90;99.90
9371;DHT22;4725;48.384;8.984;2024-01-06T06:26:32;2.90;99.90
9371;DHT22;4725;48.384;8.984;2024-01-06T06:28:59;2.90;99.90
9371;DHT22;4725;48.384;8.984;2024-01-06T06:31:26;2.80;99.90
9371;DHT22;4725;48.384;8.984;2024-01-06T06:33:53;3.00;99.90
9371;DHT22;4725;48.384;8.984;2024-01-06T06:36:20;2.90;99.90
9371;DHT22;4725;48.384;8.984;2024-01-06T06:38:47;2.90;99.90
9371;DHT22;4725;48.384;8.984;2024-01-06T06:41:15;2.90;99.90
9371;DHT22;4725;48.384;8.984;2024-01-06T06:43:42;2.90;99.90
9371;DHT22;4725;48.384;8.984;2024-01-06T06:46:09;2.90;99.90
9371;DHT22;4725;48.384;8.984;2024-01-06T06:48:36;2.80;99.90
9371;DHT22;4725;48.384;8.984;2024-01-06T06:51:03;2.80;99.90
9371;DHT22;4725;48.384;8.984;2024-01-06T06:53:30;2.80;99.90
9371;DHT22;4725;48.384;8.984;2024-01-06T06:55:57;2.70;99.90
9371;DHT22;4725;48.384;8.984;2024-01-06T06:58:25;2.80;99.90
9371;DHT22;4725;48.384;8.984;2024-01-06T07:00:52;2.80;99.90
9371;DHT22;4725;48.384;8.984;2024-01-06T07:03:19;2.70;99.90
9371;DHT22;4725;48.384;8.984;2024-01-06T07:05:47;2.80;99.90
9371;DHT22;4725;48.384;8.984;2024-01-06T07:08:14;2.70;99.90
9371;DHT22;4725;48.384;8.984;2024-01-06T07:10:41;1.40;99.90
9371;DHT22;4725;48.384;8.984;2024-01-06T07:13:07;2.70;99.90
9371;DHT22;4725;48.384;8.984;2024-01-06T07:15:36;2.70;99.90
9371;DHT22;4725;48.384;8.984;2024-01-06T07:18:02;2.60;99.90
9371;DHT22;4725;48.384;8.984;2024-01-06T07:20:29;2.60;99.90
9371;DHT22;4725;48.384;8.984;2024-01-06T07:22:56;2.60;99.90
9371;DHT22;4725;48.384;8.984;2024-01-06T07:25:23;2.70;99.90
9371;DHT22;4725;48.384;8.984;2024-01-06T07:27:50;2.70;99.90
9371;DHT22;4725;48.384;8.984;2024-01-06T07:30:17;2.70;99.90
9371;DHT22;4725;48.384;8.984;2024-01-06T07:32:45;2.60;99.90
9371;DHT22;4725;48.384;8.984;2024-01-06T07:35:13;2.70;99.90
9371;DHT22;4725;48.384;8.984;2024-01-06T07:37:40;2.60;99.90
9371;DHT22;4725;48.384;8.984;2024-01-06T07:40:07;2.70;99.90
9371;DHT22;4725;48.384;8.984;2024-01-06T07:42:34;2.70;99.90
9371;DHT22;4725;48.384;8.984;2024-01-06T07:45:01;2.70;99.90
9371;DHT22;4725;48.384;8.984;2024-01-06T07:47:28;2.80;99.90
9371;DHT22;4725;48.384;8.984;2024-01-06T07:49:56;2.80;99.90
9371;DHT22;4725;48.384;8.984;2024-01-06T07:52:23;2.80;99.90
9371;DHT22;4725;48.384;8.984;2024-01-06T07:54:50;2.80;99.90
9371;DHT22;4725;48.384;8.984;2024-01-06T07:57:17;2.70;99.90
9371;DHT22;4725;48.384;8.984;2024-01-06T07:59:45;2.70;99.90
9371;DHT22;4725;48.384;8.984;2024-01-06T08:02:12;2.70;99.90
9371;DHT22;4725;48.384;8.984;2024-01-06T08:04:39;2.70;99.90
9371;DHT22;4725;48.384;8.984;2024-01-06T08:07:07;2.70;99.90
9371;DHT22;4725;48.384;8.984;2024-01-06T08:09:34;2.70;99.90
9371;DHT22;4725;48.384;8.984;2024-01-06T08:12:01;2.70;99.90
9371;DHT22;4725;48.384;8.984;2024-01-06T08:14:29;2.70;99.90
9371;DHT22;4725;48.384;8.984;2024-01-06T08:16:56;2.70;99.90
9371;DHT22;4725;48.384;8.984;2024-01-06T08:19:22;2.80;99.90
9371;DHT22;4725;48.384;8.984;2024-01-06T08:21:49;2.80;99.90
9371;DHT22;4725;48.384;8.984;2024-01-06T08:24:17;2.90;99.90
9371;DHT22;4725;48.384;8.984;2024-01-06T08:26:44;2.90;99.90
9371;DHT22;4725;48.384;8.984;2024-01-06T08:29:11;2.90;99.90
9371;DHT22;4725;48.384;8.984;2024-01-06T08:31:39;3.00;99.90
9371;DHT22;4725;48.384;8.984;2024-01-06T08:34:06;3.00;99.90
9371;DHT22;4725;48.384;8.984;2024-01-06T08:36:33;3.10;99.90
9371;DHT22;4725;48.384;8.984;2024-01-06T08:39:00;3.20;99.90
9371;DHT22;4725;48.384;8.984;2024-01-06T08:41:29;3.20;99.90
9371;DHT22;4725;48.384;8.984;2024-01-06T08:43:55;3.20;99.90
9371;DHT22;4725;48.384;8.984;2024-01-06T08:46:23;3.40;99.90
9371;DHT22;4725;48.384;8.984;2024-01-06T08:48:49;3.30;99.90
9371;DHT22;4725;48.384;8.984;2024-01-06T08:51:16;3.40;99.90
9371;DHT22;4725;48.384;8.984;2024-01-06T08:53:43;3.40;99.90
9371;DHT22;4725;48.384;8.984;2024-01-06T08:56:10;3.40;99.90
9371;DHT22;4725;48.384;8.984;2024-01-06T08:58:38;3.40;99.90
9371;DHT22;4725;48.384;8.984;2024-01-06T09:01:05;3.40;99.90
9371;DHT22;4725;48.384;8.984;2024-01-06T09:03:32;3.50;99.90
9371;DHT22;4725;48.384;8.984;2024-01-06T09:05:58;3.50;99.90
9371;DHT22;4725;48.384;8.984;2024-01-06T09:08:25;3.50;99.90
9371;DHT22;4725;48.384;8.984;2024-01-06T09:10:53;3.50;99.90
9371;DHT22;4725;48.384;8.984;2024-01-06T09:13:24;3.50;99.90
9371;DHT22;4725;48.384;8.984;2024-01-06T09:15:52;3.60;99.90
9371;DHT22;4725;48.384;8.984;2024-01-06T09:18:19;3.60;99.90
9371;DHT22;4725;48.384;8.984;2024-01-06T09:20:46;3.60;99.90
9371;DHT22;4725;48.384;8.984;2024-01-06T09:23:15;3.80;99.90
9371;DHT22;4725;48.384;8.984;2024-01-06T09:25:42;3.80;99.90
9371;DHT22;4725;48.384;8.984;2024-01-06T09:28:09;3.80;99.90
9371;DHT22;4725;48.384;8.984;2024-01-06T09:30:36;2.80;99.90
9371;DHT22;4725;48.384;8.984;2024-01-06T09:33:05;4.00;99.90
9371;DHT22;4725;48.384;8.984;2024-01-06T09:35:33;4.00;99.90
9371;DHT22;4725;48.384;8.984;2024-01-06T09:38:00;4.10;99.90
9371;DHT22;4725;48.384;8.984;2024-01-06T09:40:27;4.00;99.90
9371;DHT22;4725;48.384;8.984;2024-01-06T09:42:57;4.00;99.90
9371;DHT22;4725;48.384;8.984;2024-01-06T09:45:24;4.10;99.90
9371;DHT22;4725;48.384;8.984;2024-01-06T09:47:51;4.20;99.90
9371;DHT22;4725;48.384;8.984;2024-01-06T09:50:20;3.70;99.90
9371;DHT22;4725;48.384;8.984;2024-01-06T09:52:48;4.20;99.90
9371;DHT22;4725;48.384;8.984;2024-01-06T09:55:23;4.30;99.90
9371;DHT22;4725;48.384;8.984;2024-01-06T09:57:49;4.50;99.90
9371;DHT22;4725;48.384;8.984;2024-01-06T10:00:18;4.50;99.90
9371;DHT22;4725;48.384;8.984;2024-01-06T10:02:45;4.40;99.90
9371;DHT22;4725;48.384;8.984;2024-01-06T10:05:14;4.60;99.90
9371;DHT22;4725;48.384;8.984;2024-01-06T10:07:43;2.50;99.90
9371;DHT22;4725;48.384;8.984;2024-01-06T10:10:10;4.40;99.90
9371;DHT22;4725;48.384;8.984;2024-01-06T10:12:37;4.40;99.90
9371;DHT22;4725;48.384;8.984;2024-01-06T10:15:06;4.50;99.90
9371;DHT22;4725;48.384;8.984;2024-01-06T10:17:33;4.60;99.90
9371;DHT22;4725;48.384;8.984;2024-01-06T10:22:30;4.70;99.90
9371;DHT22;4725;48.384;8.984;2024-01-06T10:25:00;4.70;99.90
9371;DHT22;4725;48.384;8.984;2024-01-06T10:27:27;4.70;99.90
9371;DHT22;4725;48.384;8.984;2024-01-06T10:29:54;4.50;99.90
9371;DHT22;4725;48.384;8.984;2024-01-06T10:32:21;4.70;99.90
9371;DHT22;4725;48.384;8.984;2024-01-06T10:34:52;4.60;99.90
9371;DHT22;4725;48.384;8.984;2024-01-06T10:37:20;4.80;99.90
9371;DHT22;4725;48.384;8.984;2024-01-06T10:39:47;4.80;99.90
9371;DHT22;4725;48.384;8.984;2024-01-06T10:42:16;5.10;99.90
9371;DHT22;4725;48.384;8.984;2024-01-06T10:44:42;5.10;99.90
9371;DHT22;4725;48.384;8.984;2024-01-06T10:47:10;5.00;99.90
9371;DHT22;4725;48.384;8.984;2024-01-06T10:49:38;4.90;99.90
9371;DHT22;4725;48.384;8.984;2024-01-06T10:52:05;5.00;99.90
9371;DHT22;4725;48.384;8.984;2024-01-06T10:54:33;5.00;99.90
9371;DHT22;4725;48.384;8.984;2024-01-06T10:57:02;5.00;99.90
9371;DHT22;4725;48.384;8.984;2024-01-06T10:59:33;5.00;99.90
9371;DHT22;4725;48.384;8.984;2024-01-06T11:02:00;5.00;99.90
9371;DHT22;4725;48.384;8.984;2024-01-06T11:04:28;4.90;99.90
9371;DHT22;4725;48.384;8.984;2024-01-06T11:06:55;4.80;99.90
9371;DHT22;4725;48.384;8.984;2024-01-06T11:09:24;4.70;99.90
9371;DHT22;4725;48.384;8.984;2024-01-06T11:11:53;4.70;99.90
9371;DHT22;4725;48.384;8.984;2024-01-06T11:14:22;4.80;99.90
9371;DHT22;4725;48.384;8.984;2024-01-06T11:16:51;4.90;99.90
9371;DHT22;4725;48.384;8.984;2024-01-06T11:19:43;5.00;99.90
9371;DHT22;4725;48.384;8.984;2024-01-06T11:22:26;5.20;99.90
9371;DHT22;4725;48.384;8.984;2024-01-06T11:24:55;5.40;99.90
9371;DHT22;4725;48.384;8.984;2024-01-06T11:27:25;5.40;99.90
9371;DHT22;4725;48.384;8.984;2024-01-06T11:29:54;5.50;99.90
9371;DHT22;4725;48.384;8.984;2024-01-06T11:32:28;5.60;99.90
9371;DHT22;4725;48.384;8.984;2024-01-06T11:34:55;5.60;99.90
9371;DHT22;4725;48.384;8.984;2024-01-06T11:37:25;5.50;99.90
9371;DHT22;4725;48.384;8.984;2024-01-06T11:39:52;5.50;99.90
9371;DHT22;4725;48.384;8.984;2024-01-06T11:42:19;5.40;99.90
9371;DHT22;4725;48.384;8.984;2024-01-06T11:44:50;5.40;99.90
9371;DHT22;4725;48.384;8.984;2024-01-06T11:47:17;5.40;99.90
9371;DHT22;4725;48.384;8.984;2024-01-06T11:49:54;5.40;99.90
9371;DHT22;4725;48.384;8.984;2024-01-06T11:52:22;5.40;99.90
9371;DHT22;4725;48.384;8.984;2024-01-06T11:54:52;5.40;99.90
9371;DHT22;4725;48.384;8.984;2024-01-06T11:57:19;5.40;99.90
9371;DHT22;4725;48.384;8.984;2024-01-06T11:59:46;5.50;99.90
9371;DHT22;4725;48.384;8.984;2024-01-06T12:02:13;5.40;99.90
9371;DHT22;4725;48.384;8.984;2024-01-06T12:04:40;5.40;99.90
9371;DHT22;4725;48.384;8.984;2024-01-06T12:07:10;5.30;99.90
9371;DHT22;4725;48.384;8.984;2024-01-06T12:09:39;5.20;99.90
9371;DHT22;4725;48.384;8.984;2024-01-06T12:12:07;5.20;99.90
9371;DHT22;4725;48.384;8.984;2024-01-06T12:14:35;5.20;99.90
9371;DHT22;4725;48.384;8.984;2024-01-06T12:17:02;5.10;99.90
9371;DHT22;4725;48.384;8.984;2024-01-06T12:19:29;5.00;99.90
9371;DHT22;4725;48.384;8.984;2024-01-06T12:21:57;5.00;99.90
9371;DHT22;4725;48.384;8.984;2024-01-06T12:24:27;5.10;99.90
9371;DHT22;4725;48.384;8.984;2024-01-06T12:26:55;5.00;99.90
9371;DHT22;4725;48.384;8.984;2024-01-06T12:29:22;5.00;99.90
9371;DHT22;4725;48.384;8.984;2024-01-06T12:31:49;5.00;99.90
9371;DHT22;4725;48.384;8.984;2024-01-06T12:34:16;5.00;99.90
9371;DHT22;4725;48.384;8.984;2024-01-06T12:36:43;5.00;99.90
9371;DHT22;4725;48.384;8.984;2024-01-06T12:39:12;5.00;99.90
9371;DHT22;4725;48.384;8.984;2024-01-06T12:41:41;4.90;99.90
9371;DHT22;4725;48.384;8.984;2024-01-06T12:44:08;5.00;99.90
9371;DHT22;4725;48.384;8.984;2024-01-06T12:46:35;5.20;99.90
9371;DHT22;4725;48.384;8.984;2024-01-06T12:49:02;5.20;99.90
9371;DHT22;4725;48.384;8.984;2024-01-06T12:51:29;5.10;99.90
9371;DHT22;4725;48.384;8.984;2024-01-06T12:53:56;5.20;99.90
9371;DHT22;4725;48.384;8.984;2024-01-06T12:56:23;5.30;99.90
9371;DHT22;4725;48.384;8.984;2024-01-06T12:58:52;5.30;99.90
9371;DHT22;4725;48.384;8.984;2024-01-06T13:01:19;5.40;99.90
9371;DHT22;4725;48.384;8.984;2024-01-06T13:03:46;5.50;99.90
9371;DHT22;4725;48.384;8.984;2024-01-06T13:06:13;5.60;99.90
9371;DHT22;4725;48.384;8.984;2024-01-06T13:08:41;5.60;99.90
9371;DHT22;4725;48.384;8.984;2024-01-06T13:11:09;5.50;99.90
9371;DHT22;4725;48.384;8.984;2024-01-06T13:13:36;5.50;99.90
9371;DHT22;4725;48.384;8.984;2024-01-06T13:16:04;5.40;99.90
9371;DHT22;4725;48.384;8.984;2024-01-06T13:20:58;5.50;99.90
9371;DHT22;4725;48.384;8.984;2024-01-06T13:23:25;5.50;99.90
9371;DHT22;4725;48.384;8.984;2024-01-06T13:25:52;5.40;99.90
9371;DHT22;4725;48.384;8.984;2024-01-06T13:28:19;5.40;99.90
9371;DHT22;4725;48.384;8.984;2024-01-06T13:30:46;6.60;99.90
9371;DHT22;4725;48.384;8.984;2024-01-06T13:33:14;5.30;99.90
9371;DHT22;4725;48.384;8.984;2024-01-06T13:35:41;5.30;99.90
9371;DHT22;4725;48.384;8.984;2024-01-06T13:38:08;5.30;99.90
9371;DHT22;4725;48.384;8.984;2024-01-06T13:40:35;5.30;99.90
9371;DHT22;4725;48.384;8.984;2024-01-06T13:43:03;5.30;99.90
9371;DHT22;4725;48.384;8.984;2024-01-06T13:45:30;5.20;99.90
9371;DHT22;4725;48.384;8.984;2024-01-06T13:47:57;5.20;99.90
9371;DHT22;4725;48.384;8.984;2024-01-06T13:50:25;5.20;99.90
9371;DHT22;4725;48.384;8.984;2024-01-06T13:52:52;5.10;99.90
9371;DHT22;4725;48.384;8.984;2024-01-06T13:55:20;5.10;99.90
9371;DHT22;4725;48.384;8.984;2024-01-06T13:57:46;5.10;99.90
9371;DHT22;4725;48.384;8.984;2024-01-06T14:00:14;5.10;99.90
9371;DHT22;4725;48.384;8.984;2024-01-06T14:02:44;5.10;99.90
9371;DHT22;4725;48.384;8.984;2024-01-06T14:05:13;5.10;99.90
9371;DHT22;4725;48.384;8.984;2024-01-06T14:07:41;5.10;99.90
9371;DHT22;4725;48.384;8.984;2024-01-06T14:10:11;5.20;99.90
9371;DHT22;4725;48.384;8.984;2024-01-06T14:12:39;5.20;99.90
9371;DHT22;4725;48.384;8.984;2024-01-06T14:15:07;5.60;99.90
9371;DHT22;4725;48.384;8.984;2024-01-06T14:17:34;5.10;99.90
9371;DHT22;4725;48.384;8.984;2024-01-06T14:20:02;5.00;99.90
9371;DHT22;4725;48.384;8.984;2024-01-06T14:22:29;5.00;99.90
9371;DHT22;4725;48.384;8.984;2024-01-06T14:24:57;5.00;99.90
9371;DHT22;4725;48.384;8.984;2024-01-06T14:27:24;4.90;99.90
9371;DHT22;4725;48.384;8.984;2024-01-06T14:29:51;4.90;99.90
9371;DHT22;4725;48.384;8.984;2024-01-06T14:32:21;4.90;99.90
9371;DHT22;4725;48.384;8.984;2024-01-06T14:34:49;4.70;99.90
9371;DHT22;4725;48.384;8.984;2024-01-06T14:37:16;4.70;99.90
9371;DHT22;4725;48.384;8.984;2024-01-06T14:39:43;4.70;99.90
9371;DHT22;4725;48.384;8.984;2024-01-06T14:42:12;4.70;99.90
9371;DHT22;4725;48.384;8.984;2024-01-06T14:44:40;4.60;99.90
9371;DHT22;4725;48.384;8.984;2024-01-06T14:47:09;7.60;99.90
9371;DHT22;4725;48.384;8.984;2024-01-06T14:49:39;4.50;99.90
9371;DHT22;4725;48.384;8.984;2024-01-06T14:52:08;4.30;99.90
9371;DHT22;4725;48.384;8.984;2024-01-06T14:54:39;4.30;99.90
9371;DHT22;4725;48.384;8.984;2024-01-06T14:57:08;4.20;99.90
9371;DHT22;4725;48.384;8.984;2024-01-06T14:59:54;4.10;99.90
9371;DHT22;4725;48.384;8.984;2024-01-06T15:02:25;4.00;99.90
9371;DHT22;4725;48.384;8.984;2024-01-06T15:04:55;3.90;99.90
9371;DHT22;4725;48.384;8.984;2024-01-06T15:07:23;3.70;99.90
9371;DHT22;4725;48.384;8.984;2024-01-06T15:09:50;3.70;99.90
9371;DHT22;4725;48.384;8.984;2024-01-06T15:12:17;3.70;99.90
9371;DHT22;4725;48.384;8.984;2024-01-06T15:14:44;3.70;99.90
9371;DHT22;4725;48.384;8.984;2024-01-06T15:17:14;3.60;99.90
9371;DHT22;4725;48.384;8.984;2024-01-06T15:19:45;3.50;99.90
9371;DHT22;4725;48.384;8.984;2024-01-06T15:22:13;3.50;99.90
9371;DHT22;4725;48.384;8.984;2024-01-06T15:24:39;3.50;99.90
9371;DHT22;4725;48.384;8.984;2024-01-06T15:27:08;3.50;99.90
9371;DHT22;4725;48.384;8.984;2024-01-06T15:29:35;3.50;99.90
9371;DHT22;4725;48.384;8.984;2024-01-06T15:32:02;3.50;99.90
9371;DHT22;4725;48.384;8.984;2024-01-06T15:34:31;3.50;99.90
9371;DHT22;4725;48.384;8.984;2024-01-06T15:36:58;3.50;99.90
9371;DHT22;4725;48.384;8.984;2024-01-06T15:39:24;3.40;99.90
9371;DHT22;4725;48.384;8.984;2024-01-06T15:41:51;3.40;99.90
9371;DHT22;4725;48.384;8.984;2024-01-06T15:44:18;3.40;99.90
9371;DHT22;4725;48.384;8.984;2024-01-06T15:46:45;3.30;99.90
9371;DHT22;4725;48.384;8.984;2024-01-06T15:49:13;3.30;99.90
9371;DHT22;4725;48.384;8.984;2024-01-06T15:51:41;3.40;99.90
9371;DHT22;4725;48.384;8.984;2024-01-06T15:54:09;3.30;99.90
9371;DHT22;4725;48.384;8.984;2024-01-06T15:56:37;3.30;99.90
9371;DHT22;4725;48.384;8.984;2024-01-06T15:59:04;3.30;99.90
9371;DHT22;4725;48.384;8.984;2024-01-06T16:01:31;3.30;99.90
9371;DHT22;4725;48.384;8.984;2024-01-06T16:03:58;3.30;99.90
9371;DHT22;4725;48.384;8.984;2024-01-06T16:06:25;3.30;99.90
9371;DHT22;4725;48.384;8.984;2024-01-06T16:08:54;3.30;99.90
9371;DHT22;4725;48.384;8.984;2024-01-06T16:11:21;3.30;99.90
9371;DHT22;4725;48.384;8.984;2024-01-06T16:13:48;3.30;99.90
9371;DHT22;4725;48.384;8.984;2024-01-06T16:16:15;3.30;99.90
9371;DHT22;4725;48.384;8.984;2024-01-06T16:18:42;3.30;99.90
9371;DHT22;4725;48.384;8.984;2024-01-06T16:21:09;3.30;99.90
9371;DHT22;4725;48.384;8.984;2024-01-06T16:23:37;3.30;99.90